»·PEaware :: N232WP KSAN-KVNY

N232WP :: KSAN-KVNY

FLIGHT INFORMATION

Flight Status: Arrived
Operator: Privately registered:
United States
More flights under this callsign
Pilot: Walter P. (10403)
Aircraft: BOMBARDIER BD-100 CHALLENGER 300
(CL30)
More flights by this aircraft type
Origin: KSAN San Diego Intl-Lindbergh
United States
Destination: KVNY Van Nuys
United States
More flights between these airports :: More routes between these airports
Route: +CWARD2 LAX CANOG
File this flight plan on PilotEdge
Remarks: TEC route SANP16R
Altitude:
(Current/Filed)
10,000ft
Speed:
(Current/Filed)
350kts
Departed: 03-Aug-18 01:45 PM
Arrived: 03-Aug-18 02:20 PM
Distance/Time
Traveled:
109nm/0:34
Distance/Time
To Go:
Arrived

Flight Plot

Page will automatically refresh every two minutes.

Flight plan parsing failed; only flown route is shown


Map Options




Map Legend


Flown Route
Filed Route
Departure Airport
Arrival Airport
Navaid (VOR, NDB)
Fix

Horizontal Profiles

Position Reports

Time Latitude Longitude Heading Altitude Ground
Speed
03-Aug-18 13:11 32.731202 -117.191568 150 24ft 0kts
03-Aug-18 13:12 32.731202 -117.191568 150 24ft 0kts
03-Aug-18 13:13 32.731202 -117.191568 150 24ft 0kts
03-Aug-18 13:14 32.731202 -117.191568 150 24ft 0kts
03-Aug-18 13:15 32.731202 -117.191568 150 24ft 0kts
03-Aug-18 13:16 32.731202 -117.191568 150 24ft 0kts
03-Aug-18 13:17 32.731202 -117.191568 150 24ft 0kts
03-Aug-18 13:18 32.731202 -117.191568 150 24ft 0kts
03-Aug-18 13:19 32.731202 -117.191568 150 24ft 0kts
03-Aug-18 13:20 32.731202 -117.191568 150 24ft 0kts
03-Aug-18 13:21 32.731202 -117.191568 150 24ft 0kts
03-Aug-18 13:22 32.731202 -117.191568 150 24ft 0kts
03-Aug-18 13:23 32.731202 -117.191568 150 24ft 0kts
03-Aug-18 13:24 32.731202 -117.191568 150 24ft 0kts
03-Aug-18 13:25 32.731202 -117.191568 150 24ft 0kts
03-Aug-18 13:26 32.731202 -117.191568 150 24ft 0kts
03-Aug-18 13:27 32.731202 -117.191568 150 24ft 0kts
03-Aug-18 13:28 32.731202 -117.191568 150 24ft 0kts
03-Aug-18 13:29 32.731202 -117.191568 150 24ft 0kts
03-Aug-18 13:30 32.731202 -117.191568 150 24ft 0kts
03-Aug-18 13:31 32.731202 -117.191568 150 24ft 0kts
03-Aug-18 13:32 32.731202 -117.191568 150 24ft 0kts
03-Aug-18 13:33 32.731202 -117.191568 150 24ft 0kts
03-Aug-18 13:34 32.731202 -117.191568 150 24ft 0kts
03-Aug-18 13:35 32.731202 -117.191568 150 24ft 0kts
03-Aug-18 13:36 32.731202 -117.191568 150 24ft 0kts
03-Aug-18 13:37 32.731202 -117.191568 150 24ft 0kts
03-Aug-18 13:38 32.731202 -117.191568 150 24ft 0kts
03-Aug-18 13:39 32.731202 -117.191568 150 24ft 0kts
03-Aug-18 13:40 32.731200 -117.191567 150 24ft 0kts
03-Aug-18 13:41 32.732449 -117.189288 107 24ft 14kts
03-Aug-18 13:42 32.731260 -117.184420 107 24ft 20kts
03-Aug-18 13:43 32.729879 -117.178771 105 24ft 19kts
03-Aug-18 13:44 32.729513 -117.176713 71 24ft 0kts
03-Aug-18 13:45 32.730722 -117.177947 284 23ft 23kts
03-Aug-18 13:46 32.738985 -117.212030 285 1577ft 179kts
03-Aug-18 13:47 32.764372 -117.262510 305 5054ft 216kts
03-Aug-18 13:48 32.800441 -117.322189 307 9161ft 239kts
03-Aug-18 13:49 32.847190 -117.393146 307 9982ft 287kts
03-Aug-18 13:50 32.896423 -117.468996 307 9990ft 291kts
03-Aug-18 13:51 32.946038 -117.545988 307 9990ft 294kts
03-Aug-18 13:52 32.995734 -117.623412 307 9990ft 296kts
03-Aug-18 13:53 33.045626 -117.701346 306 9991ft 298kts
03-Aug-18 13:54 33.104648 -117.769928 318 9991ft 299kts
03-Aug-18 13:55 33.167823 -117.834984 318 9991ft 300kts
03-Aug-18 13:56 33.243865 -117.871515 345 10009ft 302kts
03-Aug-18 13:57 33.325540 -117.893717 346 10000ft 303kts
03-Aug-18 13:58 33.399448 -117.928037 322 10002ft 300kts
03-Aug-18 13:59 33.465842 -117.988065 321 9985ft 301kts
03-Aug-18 14:00 33.531683 -118.049483 321 9981ft 301kts
03-Aug-18 14:01 33.596131 -118.110331 321 9999ft 300kts
03-Aug-18 14:02 33.660994 -118.171918 321 9990ft 301kts
03-Aug-18 14:03 33.722927 -118.230876 321 9710ft 275kts
03-Aug-18 14:04 33.780581 -118.285842 319 8108ft 271kts
03-Aug-18 14:05 33.836719 -118.339540 319 6418ft 263kts
03-Aug-18 14:06 33.892031 -118.392578 320 5981ft 260kts
03-Aug-18 14:07 33.950894 -118.440400 333 5981ft 262kts
03-Aug-18 14:08 34.015825 -118.477478 333 5990ft 263kts
03-Aug-18 14:09 34.081975 -118.514877 333 5738ft 263kts
03-Aug-18 14:10 34.145683 -118.550672 333 4999ft 239kts
03-Aug-18 14:11 34.207121 -118.580375 351 4988ft 248kts
03-Aug-18 14:12 34.275297 -118.590448 351 4980ft 249kts
03-Aug-18 14:13 34.342965 -118.600518 351 4971ft 229kts
03-Aug-18 14:14 34.404050 -118.609398 351 4947ft 218kts
03-Aug-18 14:15 34.438302 -118.558101 92 4975ft 231kts
03-Aug-18 14:16 34.397878 -118.505750 144 5020ft 200kts
03-Aug-18 14:17 34.346559 -118.502027 180 4429ft 191kts
03-Aug-18 14:18 34.296069 -118.498595 176 2971ft 181kts
03-Aug-18 14:19 34.254242 -118.494344 175 1886ft 126kts
03-Aug-18 14:20 34.220108 -118.491326 175 970ft 127kts
03-Aug-18 14:21 34.199319 -118.489323 174 809ft 23kts
03-Aug-18 14:22 34.198810 -118.488499 355 809ft 15kts
03-Aug-18 14:23 34.199376 -118.487804 135 809ft 0kts
03-Aug-18 14:24 34.199376 -118.487804 135 809ft 0kts

Navigation Log

Ident Type
Flight plan parsing failed, navigation log unavailable